AXM150 WMKK-ZHHH
Flight info
| Callsign | AXM150 |
|---|---|
| Flight time | N/A |
| Altitude | 35000 |
| Route | PIBOS1D PIBOS R208 IGARI/K0852F350 M765 BITOD M755 KISAN/N0459F350 M755 TIA N639 VILAO/K0846F350 N639 NAH Q3 NAKHA/K0833F370 R474 TEBAK/K0832S1130 R474 WUY R343 GOSMA W82 UPMAT UPMAT1T |
| Aircraft | A320/M-SDE3FGHIRWY/LB1 |
Departure
| Time | 2026-05-08 08:38 |
|---|---|
| Airport | Kuala Lumpur International Airport (WMKK) |
Arrival
| Time | N/A |
|---|---|
| Airport | Wuhan Tianhe International Airport (ZHHH) |
| Time | Latitude | Longitude | Altitude | Speed | Heading |
|---|---|---|---|---|---|
| 2026-05-08 07:53 | 2.73920 | 101.68705 | 41 ft | 0 kts | 146° |
| 2026-05-08 08:30 | 2.73936 | 101.68694 | 42 ft | 4 kts | 152° |
| 2026-05-08 08:30 | 2.73961 | 101.68685 | 39 ft | 4 kts | 180° |
| 2026-05-08 08:30 | 2.73981 | 101.68692 | 39 ft | 0 kts | 236° |
| 2026-05-08 08:33 | 2.73974 | 101.68682 | 39 ft | 6 kts | 236° |
| 2026-05-08 08:33 | 2.73949 | 101.68631 | 42 ft | 11 kts | 256° |
| 2026-05-08 08:33 | 2.73917 | 101.68542 | 42 ft | 14 kts | 236° |
| 2026-05-08 08:34 | 2.73866 | 101.68466 | 42 ft | 13 kts | 236° |
| 2026-05-08 08:34 | 2.73800 | 101.68370 | 42 ft | 18 kts | 235° |
| 2026-05-08 08:34 | 2.73735 | 101.68273 | 42 ft | 16 kts | 237° |
| 2026-05-08 08:34 | 2.73690 | 101.68204 | 40 ft | 10 kts | 239° |
| 2026-05-08 08:35 | 2.73690 | 101.68140 | 39 ft | 8 kts | 261° |
| 2026-05-08 08:35 | 2.73667 | 101.68085 | 38 ft | 8 kts | 264° |
| 2026-05-08 08:35 | 2.73690 | 101.68043 | 38 ft | 6 kts | 329° |
| 2026-05-08 08:35 | 2.73721 | 101.68023 | 38 ft | 5 kts | 327° |
| 2026-05-08 08:36 | 2.73773 | 101.67988 | 38 ft | 14 kts | 325° |
| 2026-05-08 08:36 | 2.73864 | 101.67927 | 38 ft | 12 kts | 327° |
| 2026-05-08 08:36 | 2.73894 | 101.67876 | 38 ft | 8 kts | 263° |
| 2026-05-08 08:36 | 2.73867 | 101.67838 | 38 ft | 6 kts | 233° |
| 2026-05-08 08:37 | 2.73835 | 101.67794 | 38 ft | 10 kts | 232° |
| 2026-05-08 08:37 | 2.73802 | 101.67764 | 37 ft | 4 kts | 188° |
| 2026-05-08 08:37 | 2.73778 | 101.67776 | 37 ft | 4 kts | 146° |
| 2026-05-08 08:37 | 2.73696 | 101.67832 | 36 ft | 47 kts | 146° |
| 2026-05-08 08:38 | 2.73233 | 101.68145 | 37 ft | 110 kts | 147° |
| 2026-05-08 08:38 | 2.72449 | 101.68671 | 37 ft | 159 kts | 146° |
| 2026-05-08 08:38 | 2.71432 | 101.69344 | 276 ft | 180 kts | 145° |
| 2026-05-08 08:38 | 2.70393 | 101.70035 | 925 ft | 179 kts | 146° |
| 2026-05-08 08:39 | 2.69343 | 101.70738 | 1368 ft | 191 kts | 148° |
| 2026-05-08 08:39 | 2.68045 | 101.71212 | 1508 ft | 211 kts | 182° |
| 2026-05-08 08:39 | 2.66674 | 101.70672 | 1991 ft | 218 kts | 214° |
| 2026-05-08 08:39 | 2.65455 | 101.69764 | 2673 ft | 219 kts | 216° |
| 2026-05-08 08:40 | 2.64230 | 101.68836 | 3286 ft | 222 kts | 216° |
| 2026-05-08 08:40 | 2.62988 | 101.67895 | 3877 ft | 226 kts | 217° |
| 2026-05-08 08:40 | 2.61948 | 101.66718 | 4444 ft | 231 kts | 244° |
| 2026-05-08 08:40 | 2.61701 | 101.65134 | 5053 ft | 236 kts | 278° |
| 2026-05-08 08:41 | 2.62282 | 101.63589 | 5635 ft | 240 kts | 296° |
| 2026-05-08 08:41 | 2.63279 | 101.62254 | 6199 ft | 243 kts | 324° |
| 2026-05-08 08:41 | 2.64828 | 101.61617 | 6760 ft | 244 kts | 355° |
| 2026-05-08 08:41 | 2.66541 | 101.61860 | 6992 ft | 261 kts | 27° |
| 2026-05-08 08:42 | 2.68073 | 101.62943 | 7228 ft | 279 kts | 48° |
| 2026-05-08 08:42 | 2.69145 | 101.64575 | 7744 ft | 285 kts | 69° |
| 2026-05-08 08:42 | 2.69556 | 101.66508 | 8379 ft | 286 kts | 90° |
| 2026-05-08 08:42 | 2.69508 | 101.68506 | 9046 ft | 289 kts | 92° |
| 2026-05-08 08:43 | 2.69428 | 101.70521 | 9712 ft | 291 kts | 92° |
| 2026-05-08 08:43 | 2.69337 | 101.72565 | 10174 ft | 301 kts | 92° |
| 2026-05-08 08:43 | 2.69241 | 101.74732 | 10296 ft | 323 kts | 92° |
| 2026-05-08 08:43 | 2.69141 | 101.77039 | 10508 ft | 339 kts | 92° |
| 2026-05-08 08:44 | 2.69042 | 101.79419 | 10977 ft | 345 kts | 92° |
| 2026-05-08 08:44 | 2.68946 | 101.81829 | 11530 ft | 348 kts | 92° |
| 2026-05-08 08:44 | 2.68848 | 101.84254 | 12114 ft | 350 kts | 92° |
| 2026-05-08 08:44 | 2.68749 | 101.86702 | 12668 ft | 354 kts | 92° |
| 2026-05-08 08:45 | 2.68650 | 101.89165 | 13221 ft | 356 kts | 92° |
| 2026-05-08 08:45 | 2.68551 | 101.91654 | 13758 ft | 359 kts | 92° |
| 2026-05-08 08:45 | 2.68450 | 101.94161 | 14230 ft | 362 kts | 92° |
| 2026-05-08 08:45 | 2.68349 | 101.96682 | 14717 ft | 364 kts | 92° |
| 2026-05-08 08:46 | 2.68246 | 101.99223 | 15191 ft | 367 kts | 92° |
| 2026-05-08 08:46 | 2.68143 | 102.01777 | 15665 ft | 369 kts | 92° |
| 2026-05-08 08:46 | 2.68038 | 102.04348 | 16142 ft | 371 kts | 92° |
| 2026-05-08 08:46 | 2.67932 | 102.06935 | 16620 ft | 373 kts | 92° |
| 2026-05-08 08:47 | 2.67924 | 102.09539 | 17072 ft | 375 kts | 84° |
| 2026-05-08 08:47 | 2.68443 | 102.12099 | 17507 ft | 378 kts | 72° |
| 2026-05-08 08:47 | 2.69535 | 102.14502 | 17944 ft | 382 kts | 59° |
| 2026-05-08 08:47 | 2.71142 | 102.16626 | 18335 ft | 385 kts | 49° |
| 2026-05-08 08:48 | 2.72936 | 102.18624 | 18703 ft | 388 kts | 49° |
| 2026-05-08 08:48 | 2.74744 | 102.20636 | 19084 ft | 390 kts | 49° |
| 2026-05-08 08:48 | 2.76559 | 102.22656 | 19449 ft | 392 kts | 49° |
| 2026-05-08 08:48 | 2.78409 | 102.24664 | 19811 ft | 394 kts | 44° |
| 2026-05-08 08:49 | 2.80645 | 102.26271 | 20152 ft | 399 kts | 28° |
| 2026-05-08 08:49 | 2.83270 | 102.27201 | 20495 ft | 404 kts | 12° |
| 2026-05-08 08:49 | 2.86052 | 102.27362 | 20810 ft | 410 kts | 356° |
| 2026-05-08 08:49 | 2.88880 | 102.26704 | 21147 ft | 416 kts | 339° |
| 2026-05-08 08:50 | 2.91486 | 102.25509 | 21473 ft | 419 kts | 336° |
| 2026-05-08 08:50 | 2.94127 | 102.24252 | 21817 ft | 422 kts | 336° |
| 2026-05-08 08:50 | 2.96779 | 102.22983 | 22150 ft | 424 kts | 336° |
| 2026-05-08 08:50 | 2.99449 | 102.21705 | 22461 ft | 426 kts | 336° |
| 2026-05-08 08:51 | 3.02129 | 102.20421 | 22765 ft | 429 kts | 336° |
| 2026-05-08 08:51 | 3.04829 | 102.19132 | 23082 ft | 431 kts | 336° |
| 2026-05-08 08:51 | 3.07538 | 102.17840 | 23411 ft | 433 kts | 336° |
| 2026-05-08 08:51 | 3.10265 | 102.16542 | 23675 ft | 435 kts | 336° |
| 2026-05-08 08:52 | 3.13000 | 102.15238 | 23939 ft | 436 kts | 336° |
| 2026-05-08 08:52 | 3.15746 | 102.13928 | 24196 ft | 438 kts | 336° |
| 2026-05-08 08:52 | 3.18504 | 102.12621 | 24474 ft | 439 kts | 337° |
| 2026-05-08 08:52 | 3.21298 | 102.11358 | 24746 ft | 441 kts | 338° |
| 2026-05-08 08:53 | 3.24115 | 102.10138 | 25004 ft | 442 kts | 339° |
| 2026-05-08 08:53 | 3.26948 | 102.08939 | 25263 ft | 443 kts | 339° |
| 2026-05-08 08:53 | 3.29835 | 102.07861 | 25512 ft | 443 kts | 347° |
| 2026-05-08 08:53 | 3.32862 | 102.07328 | 25757 ft | 441 kts | 358° |
| 2026-05-08 08:54 | 3.35917 | 102.07378 | 26007 ft | 439 kts | 9° |
| 2026-05-08 08:54 | 3.38899 | 102.08010 | 26228 ft | 438 kts | 20° |
| 2026-05-08 08:54 | 3.41688 | 102.09206 | 26446 ft | 436 kts | 31° |
| 2026-05-08 08:54 | 3.44321 | 102.10721 | 26660 ft | 438 kts | 31° |
| 2026-05-08 08:55 | 3.46999 | 102.12185 | 26894 ft | 439 kts | 30° |
| 2026-05-08 08:55 | 3.49724 | 102.13590 | 27123 ft | 441 kts | 28° |
| 2026-05-08 08:55 | 3.52475 | 102.14964 | 27350 ft | 443 kts | 28° |
| 2026-05-08 08:55 | 3.55239 | 102.16332 | 27578 ft | 444 kts | 28° |
| 2026-05-08 08:56 | 3.58011 | 102.17708 | 27801 ft | 446 kts | 28° |
| 2026-05-08 08:56 | 3.60786 | 102.19100 | 28013 ft | 447 kts | 28° |
| 2026-05-08 08:56 | 3.63562 | 102.20512 | 28233 ft | 448 kts | 29° |
| 2026-05-08 08:56 | 3.66340 | 102.21940 | 28450 ft | 449 kts | 29° |
| 2026-05-08 08:57 | 3.69118 | 102.23376 | 28660 ft | 450 kts | 29° |
| 2026-05-08 08:57 | 3.71909 | 102.24815 | 28863 ft | 452 kts | 29° |
| 2026-05-08 08:57 | 3.74707 | 102.26253 | 29033 ft | 453 kts | 29° |
| 2026-05-08 08:57 | 3.77522 | 102.27698 | 29193 ft | 456 kts | 29° |
| 2026-05-08 08:58 | 3.80352 | 102.29145 | 29376 ft | 457 kts | 29° |
| 2026-05-08 08:58 | 3.83192 | 102.30594 | 29561 ft | 459 kts | 29° |
| 2026-05-08 08:58 | 3.86037 | 102.32046 | 29735 ft | 460 kts | 29° |
| 2026-05-08 08:58 | 3.88891 | 102.33507 | 29906 ft | 461 kts | 29° |
| 2026-05-08 08:59 | 3.91749 | 102.34974 | 30064 ft | 462 kts | 29° |
| 2026-05-08 08:59 | 3.94615 | 102.36448 | 30217 ft | 463 kts | 29° |
| 2026-05-08 08:59 | 3.97476 | 102.37919 | 30479 ft | 461 kts | 29° |
| 2026-05-08 08:59 | 4.00331 | 102.39382 | 30737 ft | 460 kts | 29° |
| 2026-05-08 09:00 | 4.03176 | 102.40837 | 30979 ft | 459 kts | 29° |
| 2026-05-08 09:00 | 4.06017 | 102.42291 | 31176 ft | 459 kts | 29° |
| 2026-05-08 09:00 | 4.08855 | 102.43745 | 31384 ft | 458 kts | 29° |
| 2026-05-08 09:00 | 4.11693 | 102.45200 | 31620 ft | 458 kts | 29° |
| 2026-05-08 09:01 | 4.14523 | 102.46651 | 31842 ft | 457 kts | 29° |
| 2026-05-08 09:01 | 4.17357 | 102.48102 | 32079 ft | 456 kts | 28° |
| 2026-05-08 09:01 | 4.20178 | 102.49550 | 32306 ft | 456 kts | 29° |
| 2026-05-08 09:01 | 4.22999 | 102.50999 | 32541 ft | 455 kts | 28° |
| 2026-05-08 09:02 | 4.25812 | 102.52443 | 32785 ft | 455 kts | 28° |
| 2026-05-08 09:02 | 4.28628 | 102.53887 | 33037 ft | 454 kts | 28° |
| 2026-05-08 09:02 | 4.31436 | 102.55325 | 33268 ft | 453 kts | 28° |
| 2026-05-08 09:02 | 4.34242 | 102.56762 | 33509 ft | 453 kts | 28° |
| 2026-05-08 09:03 | 4.37044 | 102.58198 | 33750 ft | 452 kts | 28° |
| 2026-05-08 09:03 | 4.39840 | 102.59632 | 33958 ft | 451 kts | 28° |
| 2026-05-08 09:03 | 4.42629 | 102.61063 | 34145 ft | 451 kts | 28° |
| 2026-05-08 09:03 | 4.45418 | 102.62497 | 34324 ft | 450 kts | 28° |
| 2026-05-08 09:04 | 4.48206 | 102.63931 | 34467 ft | 451 kts | 28° |
| 2026-05-08 09:04 | 4.51001 | 102.65367 | 34587 ft | 452 kts | 28° |
| 2026-05-08 09:04 | 4.53806 | 102.66806 | 34728 ft | 452 kts | 28° |
| 2026-05-08 09:04 | 4.56606 | 102.68240 | 34855 ft | 452 kts | 28° |
| 2026-05-08 09:05 | 4.62196 | 102.71098 | 34818 ft | 450 kts | 28° |
| 2026-05-08 09:05 | 4.67800 | 102.73893 | 34820 ft | 450 kts | 27° |
| 2026-05-08 09:06 | 4.73425 | 102.76647 | 34814 ft | 450 kts | 27° |
| 2026-05-08 09:06 | 4.79006 | 102.79388 | 34823 ft | 450 kts | 28° |
| 2026-05-08 09:07 | 4.84618 | 102.82171 | 34817 ft | 450 kts | 28° |
| 2026-05-08 09:07 | 4.90231 | 102.84977 | 34807 ft | 451 kts | 28° |
| 2026-05-08 09:08 | 4.95874 | 102.87834 | 34816 ft | 452 kts | 28° |
| 2026-05-08 09:08 | 5.01452 | 102.90664 | 34813 ft | 452 kts | 28° |
| 2026-05-08 09:09 | 5.07070 | 102.93503 | 34802 ft | 452 kts | 28° |
| 2026-05-08 09:09 | 5.12694 | 102.96349 | 34798 ft | 453 kts | 28° |
| 2026-05-08 09:10 | 5.18315 | 102.99193 | 34797 ft | 453 kts | 28° |
| 2026-05-08 09:10 | 5.23983 | 103.02056 | 34776 ft | 453 kts | 27° |
| 2026-05-08 09:11 | 5.28667 | 103.04423 | 34775 ft | 454 kts | 28° |
| 2026-05-08 09:11 | 5.34308 | 103.07277 | 34776 ft | 454 kts | 28° |
| 2026-05-08 09:12 | 5.41185 | 103.10009 | 34772 ft | 456 kts | 21° |
| 2026-05-08 09:12 | 5.46144 | 103.11795 | 34773 ft | 456 kts | 21° |
| 2026-05-08 09:13 | 5.52116 | 103.13950 | 34813 ft | 456 kts | 21° |
| 2026-05-08 09:13 | 5.58084 | 103.16106 | 34818 ft | 456 kts | 21° |
| 2026-05-08 09:14 | 5.64053 | 103.18266 | 34819 ft | 456 kts | 21° |
| 2026-05-08 09:14 | 5.70021 | 103.20420 | 34818 ft | 456 kts | 21° |
| 2026-05-08 09:15 | 5.75995 | 103.22563 | 34809 ft | 456 kts | 20° |
| 2026-05-08 09:15 | 5.82043 | 103.24502 | 34820 ft | 456 kts | 18° |
| 2026-05-08 09:16 | 5.88144 | 103.26281 | 34820 ft | 456 kts | 17° |
| 2026-05-08 09:16 | 5.94192 | 103.28068 | 34817 ft | 456 kts | 18° |
| 2026-05-08 09:17 | 6.00274 | 103.29923 | 34817 ft | 457 kts | 18° |
| 2026-05-08 09:17 | 6.06351 | 103.31789 | 34819 ft | 457 kts | 18° |
| 2026-05-08 09:18 | 6.12472 | 103.33658 | 34816 ft | 457 kts | 18° |
| 2026-05-08 09:18 | 6.18515 | 103.35500 | 34821 ft | 457 kts | 18° |
| 2026-05-08 09:19 | 6.24607 | 103.37358 | 34827 ft | 457 kts | 18° |
| 2026-05-08 09:19 | 6.30686 | 103.39219 | 34829 ft | 457 kts | 18° |
| 2026-05-08 09:20 | 6.36767 | 103.41083 | 34831 ft | 457 kts | 18° |
| 2026-05-08 09:20 | 6.42845 | 103.42941 | 34831 ft | 456 kts | 18° |
| 2026-05-08 09:21 | 6.48918 | 103.44795 | 34830 ft | 456 kts | 18° |
| 2026-05-08 09:23 | 6.70160 | 103.51303 | 34819 ft | 456 kts | 18° |
| 2026-05-08 09:23 | 6.76232 | 103.53165 | 34816 ft | 457 kts | 18° |
| 2026-05-08 09:24 | 6.82316 | 103.55021 | 34818 ft | 457 kts | 18° |
| 2026-05-08 09:24 | 6.88383 | 103.56925 | 34818 ft | 456 kts | 23° |
| 2026-05-08 09:24 | 6.91219 | 103.58332 | 34820 ft | 453 kts | 34° |
| 2026-05-08 09:25 | 6.93744 | 103.60208 | 34816 ft | 451 kts | 44° |
| 2026-05-08 09:25 | 6.97639 | 103.65081 | 34816 ft | 447 kts | 60° |
| 2026-05-08 09:26 | 7.00859 | 103.70442 | 34809 ft | 448 kts | 60° |
| 2026-05-08 09:26 | 7.04078 | 103.75812 | 34811 ft | 448 kts | 59° |
| 2026-05-08 09:27 | 7.07296 | 103.81187 | 34809 ft | 448 kts | 60° |
| 2026-05-08 09:27 | 7.10520 | 103.86561 | 34830 ft | 449 kts | 59° |
| 2026-05-08 09:28 | 7.13747 | 103.91935 | 34833 ft | 448 kts | 59° |
| 2026-05-08 09:28 | 7.16964 | 103.97304 | 34835 ft | 448 kts | 60° |
| 2026-05-08 09:29 | 7.20182 | 104.02665 | 34837 ft | 447 kts | 60° |
| 2026-05-08 09:29 | 7.23632 | 104.07871 | 34835 ft | 448 kts | 49° |
| 2026-05-08 09:29 | 7.25921 | 104.09999 | 34832 ft | 449 kts | 37° |
| 2026-05-08 09:30 | 7.28585 | 104.11641 | 34823 ft | 450 kts | 26° |
| 2026-05-08 09:30 | 7.31520 | 104.12739 | 34819 ft | 452 kts | 15° |
| 2026-05-08 09:30 | 7.34613 | 104.13328 | 34819 ft | 453 kts | 11° |
| 2026-05-08 09:31 | 7.40838 | 104.14358 | 34815 ft | 453 kts | 11° |
| 2026-05-08 09:31 | 7.47058 | 104.15393 | 34809 ft | 454 kts | 11° |
| 2026-05-08 09:32 | 7.53290 | 104.16435 | 34819 ft | 454 kts | 11° |
| 2026-05-08 09:32 | 7.59521 | 104.17476 | 34811 ft | 454 kts | 10° |
| 2026-05-08 09:33 | 7.65758 | 104.18516 | 34826 ft | 454 kts | 10° |
| 2026-05-08 09:33 | 7.71990 | 104.19553 | 34828 ft | 454 kts | 11° |
| 2026-05-08 09:34 | 7.78181 | 104.20584 | 34829 ft | 454 kts | 10° |
| 2026-05-08 09:34 | 7.84416 | 104.21626 | 34834 ft | 454 kts | 10° |
| 2026-05-08 09:35 | 7.90647 | 104.22681 | 34823 ft | 454 kts | 11° |
| 2026-05-08 09:35 | 7.96888 | 104.23730 | 34818 ft | 455 kts | 10° |
| 2026-05-08 09:36 | 8.03132 | 104.24770 | 34819 ft | 455 kts | 10° |
| 2026-05-08 09:36 | 8.09379 | 104.25810 | 34819 ft | 455 kts | 9° |
| 2026-05-08 09:37 | 8.15629 | 104.26857 | 34825 ft | 455 kts | 10° |
| 2026-05-08 09:37 | 8.21877 | 104.27907 | 34827 ft | 455 kts | 9° |
| 2026-05-08 09:38 | 8.28123 | 104.28950 | 34826 ft | 455 kts | 9° |
| 2026-05-08 09:38 | 8.34373 | 104.29993 | 34827 ft | 455 kts | 9° |
| 2026-05-08 09:39 | 8.40616 | 104.31039 | 34827 ft | 455 kts | 10° |
| 2026-05-08 09:39 | 8.46860 | 104.32091 | 34831 ft | 455 kts | 9° |
| 2026-05-08 09:40 | 8.53094 | 104.33139 | 34838 ft | 454 kts | 9° |
| 2026-05-08 09:40 | 8.59318 | 104.34185 | 34841 ft | 453 kts | 9° |
| 2026-05-08 09:41 | 8.65533 | 104.35224 | 34836 ft | 452 kts | 9° |
| 2026-05-08 09:41 | 8.71699 | 104.36256 | 34830 ft | 452 kts | 9° |
| 2026-05-08 09:42 | 8.77902 | 104.37298 | 34831 ft | 452 kts | 9° |
| 2026-05-08 09:42 | 8.84099 | 104.38344 | 34830 ft | 451 kts | 9° |
| 2026-05-08 09:43 | 8.90290 | 104.39393 | 34828 ft | 451 kts | 9° |
| 2026-05-08 09:43 | 8.96479 | 104.40436 | 34826 ft | 451 kts | 9° |
| 2026-05-08 09:44 | 9.02666 | 104.41470 | 34825 ft | 450 kts | 9° |
| 2026-05-08 09:44 | 9.08851 | 104.42504 | 34824 ft | 450 kts | 9° |
| 2026-05-08 09:45 | 9.15028 | 104.43545 | 34827 ft | 450 kts | 9° |
| 2026-05-08 09:45 | 9.21209 | 104.44583 | 34832 ft | 450 kts | 9° |
| 2026-05-08 09:46 | 9.27390 | 104.45619 | 34828 ft | 450 kts | 9° |
| 2026-05-08 09:46 | 9.33561 | 104.46664 | 34827 ft | 450 kts | 9° |
| 2026-05-08 09:47 | 9.39729 | 104.47706 | 34825 ft | 450 kts | 9° |
| 2026-05-08 09:47 | 9.45900 | 104.48755 | 34824 ft | 449 kts | 9° |
| 2026-05-08 09:48 | 9.52065 | 104.49801 | 34820 ft | 449 kts | 9° |
| 2026-05-08 09:48 | 9.58239 | 104.50843 | 34805 ft | 450 kts | 9° |
| 2026-05-08 09:49 | 9.64429 | 104.51887 | 34801 ft | 451 kts | 9° |
| 2026-05-08 09:49 | 9.70632 | 104.52933 | 34799 ft | 452 kts | 9° |
| 2026-05-08 09:50 | 9.76841 | 104.53982 | 34806 ft | 453 kts | 9° |
| 2026-05-08 09:50 | 9.83057 | 104.55026 | 34800 ft | 453 kts | 9° |
| 2026-05-08 09:51 | 9.89277 | 104.56073 | 34808 ft | 453 kts | 9° |
| 2026-05-08 09:51 | 9.95482 | 104.57126 | 34823 ft | 452 kts | 9° |
| 2026-05-08 09:52 | 10.01671 | 104.58175 | 34827 ft | 450 kts | 9° |
| 2026-05-08 09:52 | 10.07845 | 104.59222 | 34827 ft | 450 kts | 9° |
| 2026-05-08 09:53 | 10.14004 | 104.60321 | 34825 ft | 449 kts | 10° |
| 2026-05-08 09:53 | 10.20155 | 104.61448 | 34821 ft | 449 kts | 10° |
| 2026-05-08 09:54 | 10.26309 | 104.62561 | 34821 ft | 448 kts | 10° |
| 2026-05-08 09:54 | 10.32444 | 104.63657 | 34827 ft | 447 kts | 10° |
| 2026-05-08 09:55 | 10.38525 | 104.64743 | 34822 ft | 446 kts | 10° |
| 2026-05-08 09:55 | 10.44640 | 104.65838 | 34820 ft | 446 kts | 10° |
| 2026-05-08 09:56 | 10.50786 | 104.66946 | 34821 ft | 445 kts | 10° |
| 2026-05-08 09:56 | 10.56782 | 104.68324 | 34816 ft | 445 kts | 16° |
| 2026-05-08 09:57 | 10.65725 | 104.70866 | 34804 ft | 445 kts | 16° |
| 2026-05-08 09:57 | 10.71696 | 104.72552 | 34802 ft | 446 kts | 15° |
| 2026-05-08 09:58 | 10.77672 | 104.74251 | 34804 ft | 446 kts | 16° |
| 2026-05-08 09:58 | 10.83645 | 104.75955 | 34802 ft | 446 kts | 16° |
| 2026-05-08 09:59 | 10.88615 | 104.77372 | 34804 ft | 446 kts | 16° |
| 2026-05-08 09:59 | 10.94631 | 104.79085 | 34805 ft | 446 kts | 16° |
| 2026-05-08 10:00 | 11.00573 | 104.80772 | 34798 ft | 447 kts | 16° |
| 2026-05-08 10:00 | 11.06561 | 104.82480 | 34799 ft | 447 kts | 16° |
| 2026-05-08 10:01 | 11.12553 | 104.84193 | 34798 ft | 448 kts | 16° |
| 2026-05-08 10:01 | 11.18554 | 104.85904 | 34801 ft | 448 kts | 16° |
| 2026-05-08 10:02 | 11.24558 | 104.87618 | 34804 ft | 448 kts | 16° |
| 2026-05-08 10:02 | 11.30561 | 104.89327 | 34803 ft | 448 kts | 16° |
| 2026-05-08 10:03 | 11.36584 | 104.90983 | 34806 ft | 448 kts | 14° |
| 2026-05-08 10:03 | 11.42683 | 104.92315 | 34808 ft | 448 kts | 11° |
| 2026-05-08 10:04 | 11.48809 | 104.93517 | 34801 ft | 448 kts | 12° |
| 2026-05-08 10:04 | 11.54926 | 104.94766 | 34803 ft | 448 kts | 12° |
| 2026-05-08 10:05 | 11.61029 | 104.96072 | 34804 ft | 448 kts | 13° |
| 2026-05-08 10:05 | 11.67128 | 104.97394 | 34804 ft | 448 kts | 13° |
| 2026-05-08 10:06 | 11.73234 | 104.98705 | 34802 ft | 449 kts | 13° |
| 2026-05-08 10:06 | 11.79350 | 105.00017 | 34800 ft | 449 kts | 13° |
| 2026-05-08 10:07 | 11.85466 | 105.01311 | 34805 ft | 449 kts | 13° |
| 2026-05-08 10:07 | 11.91583 | 105.02610 | 34804 ft | 449 kts | 13° |
| 2026-05-08 10:08 | 11.97697 | 105.03928 | 34807 ft | 449 kts | 13° |
| 2026-05-08 10:08 | 12.03814 | 105.05248 | 34801 ft | 449 kts | 13° |
| 2026-05-08 10:09 | 12.09940 | 105.06561 | 34800 ft | 450 kts | 13° |
| 2026-05-08 10:09 | 12.16070 | 105.07873 | 34799 ft | 450 kts | 13° |
| 2026-05-08 10:10 | 12.22203 | 105.09182 | 34794 ft | 450 kts | 13° |
| 2026-05-08 10:10 | 12.28341 | 105.10491 | 34796 ft | 450 kts | 13° |
| 2026-05-08 10:11 | 12.34479 | 105.11813 | 34798 ft | 451 kts | 13° |
| 2026-05-08 10:11 | 12.40609 | 105.13136 | 34798 ft | 450 kts | 13° |
| 2026-05-08 10:12 | 12.46750 | 105.14451 | 34799 ft | 450 kts | 13° |
| 2026-05-08 10:12 | 12.52883 | 105.15769 | 34799 ft | 450 kts | 13° |
| 2026-05-08 10:13 | 12.58975 | 105.17080 | 34796 ft | 450 kts | 13° |
| 2026-05-08 10:13 | 12.65107 | 105.18397 | 34796 ft | 450 kts | 13° |
| 2026-05-08 10:14 | 12.71242 | 105.19714 | 34801 ft | 450 kts | 12° |
| 2026-05-08 10:14 | 12.77372 | 105.21034 | 34802 ft | 450 kts | 12° |
| 2026-05-08 10:15 | 12.83540 | 105.22352 | 34800 ft | 450 kts | 12° |
| 2026-05-08 10:15 | 12.89620 | 105.23663 | 34801 ft | 450 kts | 13° |
| 2026-05-08 10:16 | 12.95743 | 105.24985 | 34807 ft | 450 kts | 12° |
| 2026-05-08 10:16 | 13.01863 | 105.26302 | 34805 ft | 449 kts | 13° |
| 2026-05-08 10:17 | 13.07983 | 105.27626 | 34807 ft | 449 kts | 12° |
| 2026-05-08 10:17 | 13.14093 | 105.28950 | 34811 ft | 448 kts | 12° |
| 2026-05-08 10:18 | 13.20195 | 105.30268 | 34819 ft | 448 kts | 12° |
| 2026-05-08 10:18 | 13.26281 | 105.31589 | 34820 ft | 447 kts | 12° |
| 2026-05-08 10:19 | 13.32365 | 105.32906 | 34818 ft | 446 kts | 12° |
| 2026-05-08 10:20 | 13.41477 | 105.34874 | 34814 ft | 446 kts | 12° |
| 2026-05-08 10:20 | 13.47552 | 105.36183 | 34810 ft | 446 kts | 12° |
| 2026-05-08 10:21 | 13.53625 | 105.37496 | 34811 ft | 446 kts | 12° |
| 2026-05-08 10:21 | 13.59697 | 105.38813 | 34813 ft | 446 kts | 12° |
| 2026-05-08 10:22 | 13.65764 | 105.40138 | 34808 ft | 446 kts | 12° |
| 2026-05-08 10:22 | 13.71836 | 105.41460 | 34809 ft | 446 kts | 12° |
| 2026-05-08 10:23 | 13.77904 | 105.42776 | 34815 ft | 446 kts | 12° |
| 2026-05-08 10:23 | 13.83954 | 105.44185 | 34812 ft | 446 kts | 14° |
| 2026-05-08 10:24 | 13.89951 | 105.45808 | 34819 ft | 446 kts | 15° |
| 2026-05-08 10:24 | 13.95944 | 105.47463 | 34820 ft | 446 kts | 15° |
| 2026-05-08 10:25 | 14.01944 | 105.49077 | 34829 ft | 446 kts | 14° |
| 2026-05-08 10:25 | 14.07915 | 105.50653 | 34823 ft | 446 kts | 14° |
| 2026-05-08 10:26 | 14.13934 | 105.52220 | 34822 ft | 447 kts | 13° |
| 2026-05-08 10:26 | 14.20022 | 105.53548 | 34818 ft | 447 kts | 11° |
| 2026-05-08 10:27 | 14.26146 | 105.54709 | 34818 ft | 448 kts | 10° |
| 2026-05-08 10:27 | 14.32267 | 105.55892 | 34824 ft | 448 kts | 11° |
| 2026-05-08 10:28 | 14.38384 | 105.57145 | 34826 ft | 448 kts | 11° |
| 2026-05-08 10:28 | 14.44497 | 105.58411 | 34824 ft | 448 kts | 11° |
| 2026-05-08 10:29 | 14.50615 | 105.59662 | 34829 ft | 448 kts | 11° |
| 2026-05-08 10:29 | 14.56734 | 105.60905 | 34831 ft | 448 kts | 11° |
| 2026-05-08 10:30 | 14.62851 | 105.62159 | 34836 ft | 448 kts | 11° |
| 2026-05-08 10:30 | 14.68971 | 105.63420 | 34840 ft | 448 kts | 11° |
| 2026-05-08 10:31 | 14.75085 | 105.64671 | 34845 ft | 448 kts | 10° |
| 2026-05-08 10:31 | 14.81192 | 105.65915 | 34852 ft | 447 kts | 10° |
| 2026-05-08 10:32 | 14.87248 | 105.67150 | 34856 ft | 446 kts | 11° |
| 2026-05-08 10:32 | 14.93330 | 105.68399 | 34854 ft | 446 kts | 11° |
| 2026-05-08 10:33 | 14.99412 | 105.69651 | 34852 ft | 445 kts | 11° |
| 2026-05-08 10:33 | 15.05488 | 105.70896 | 34849 ft | 445 kts | 10° |
| 2026-05-08 10:34 | 15.11566 | 105.72142 | 34850 ft | 445 kts | 11° |
| 2026-05-08 10:34 | 15.17636 | 105.73391 | 34850 ft | 445 kts | 11° |
| 2026-05-08 10:35 | 15.23726 | 105.74548 | 34843 ft | 445 kts | 8° |
| 2026-05-08 10:35 | 15.29843 | 105.75478 | 34842 ft | 444 kts | 7° |
| 2026-05-08 10:36 | 15.35964 | 105.76376 | 34839 ft | 444 kts | 7° |
| 2026-05-08 10:36 | 15.42083 | 105.77321 | 34839 ft | 444 kts | 8° |
| 2026-05-08 10:37 | 15.48195 | 105.78295 | 34835 ft | 445 kts | 8° |
| 2026-05-08 10:37 | 15.54311 | 105.79273 | 34834 ft | 445 kts | 8° |
| 2026-05-08 10:38 | 15.60430 | 105.80242 | 34834 ft | 445 kts | 8° |
| 2026-05-08 10:38 | 15.66552 | 105.81203 | 34835 ft | 445 kts | 8° |
| 2026-05-08 10:39 | 15.72674 | 105.82172 | 34835 ft | 445 kts | 8° |
| 2026-05-08 10:39 | 15.78792 | 105.83146 | 34845 ft | 445 kts | 8° |
| 2026-05-08 10:40 | 15.84911 | 105.84109 | 34852 ft | 444 kts | 8° |
| 2026-05-08 10:40 | 15.91020 | 105.85068 | 34862 ft | 444 kts | 8° |
| 2026-05-08 10:41 | 15.97131 | 105.86029 | 34860 ft | 444 kts | 8° |
| 2026-05-08 10:41 | 16.03193 | 105.86996 | 34870 ft | 444 kts | 8° |
| 2026-05-08 10:42 | 16.09298 | 105.87966 | 34869 ft | 444 kts | 8° |
| 2026-05-08 10:42 | 16.15396 | 105.88932 | 34874 ft | 443 kts | 7° |
| 2026-05-08 10:43 | 16.21482 | 105.89898 | 34889 ft | 442 kts | 8° |
| 2026-05-08 10:43 | 16.27558 | 105.90861 | 34885 ft | 441 kts | 8° |
| 2026-05-08 10:44 | 16.33625 | 105.91827 | 34902 ft | 441 kts | 7° |
| 2026-05-08 10:44 | 16.39688 | 105.92799 | 34897 ft | 441 kts | 7° |
| 2026-05-08 10:45 | 16.45750 | 105.93762 | 34912 ft | 441 kts | 7° |
| 2026-05-08 10:45 | 16.51816 | 105.94726 | 34909 ft | 441 kts | 7° |
| 2026-05-08 10:46 | 16.56855 | 105.95526 | 34913 ft | 441 kts | 7° |
| 2026-05-08 10:46 | 16.63946 | 105.96657 | 34916 ft | 441 kts | 7° |
| 2026-05-08 10:47 | 16.68986 | 105.97458 | 34913 ft | 441 kts | 8° |
| 2026-05-08 10:47 | 16.75052 | 105.98438 | 34925 ft | 441 kts | 7° |
| 2026-05-08 10:48 | 16.81121 | 105.99417 | 34919 ft | 441 kts | 7° |
| 2026-05-08 10:48 | 16.87201 | 106.00388 | 34924 ft | 442 kts | 7° |
| 2026-05-08 10:49 | 16.93289 | 106.01358 | 34922 ft | 443 kts | 8° |
| 2026-05-08 10:49 | 16.99385 | 106.02332 | 34937 ft | 443 kts | 7° |
| 2026-05-08 10:50 | 17.05490 | 106.03312 | 34935 ft | 444 kts | 7° |
| 2026-05-08 10:50 | 17.11595 | 106.04294 | 34945 ft | 444 kts | 7° |
| 2026-05-08 10:51 | 17.17719 | 106.05275 | 34942 ft | 446 kts | 7° |
| 2026-05-08 10:51 | 17.23858 | 106.06254 | 34950 ft | 447 kts | 8° |
| 2026-05-08 10:52 | 17.30010 | 106.07249 | 34958 ft | 448 kts | 7° |
| 2026-05-08 10:52 | 17.36170 | 106.08222 | 34961 ft | 448 kts | 4° |
| 2026-05-08 10:53 | 17.42383 | 106.08390 | 34967 ft | 447 kts | 359° |
| 2026-05-08 10:53 | 17.48608 | 106.08466 | 34963 ft | 448 kts | 360° |
| 2026-05-08 10:54 | 17.54846 | 106.08542 | 34963 ft | 449 kts | 360° |
| 2026-05-08 10:54 | 17.61007 | 106.08611 | 34963 ft | 449 kts | 360° |
| 2026-05-08 10:55 | 17.67258 | 106.08682 | 34956 ft | 449 kts | 360° |
| 2026-05-08 10:55 | 17.73516 | 106.08757 | 34957 ft | 450 kts | 360° |
| 2026-05-08 10:56 | 17.79772 | 106.08823 | 34955 ft | 450 kts | 359° |
| 2026-05-08 10:56 | 17.86031 | 106.08892 | 34957 ft | 450 kts | 359° |
| 2026-05-08 10:57 | 17.92286 | 106.08957 | 34961 ft | 450 kts | 359° |
| 2026-05-08 10:57 | 18.01670 | 106.09049 | 34962 ft | 449 kts | 359° |
| 2026-05-08 10:58 | 18.07925 | 106.09123 | 34954 ft | 450 kts | 359° |
| 2026-05-08 10:58 | 18.14180 | 106.09194 | 34955 ft | 450 kts | 359° |
| 2026-05-08 10:59 | 18.20436 | 106.09273 | 34951 ft | 450 kts | 359° |
| 2026-05-08 10:59 | 18.26690 | 106.09346 | 34951 ft | 450 kts | 359° |
| 2026-05-08 11:00 | 18.32946 | 106.09406 | 34949 ft | 450 kts | 359° |
| 2026-05-08 11:00 | 18.39163 | 106.09465 | 34950 ft | 450 kts | 359° |
| 2026-05-08 11:01 | 18.45416 | 106.09535 | 34950 ft | 449 kts | 359° |
| 2026-05-08 11:01 | 18.51670 | 106.09614 | 34951 ft | 449 kts | 360° |
| 2026-05-08 11:02 | 18.61041 | 106.09723 | 34946 ft | 449 kts | 359° |
| 2026-05-08 11:03 | 18.67285 | 106.09788 | 34945 ft | 449 kts | 359° |
| 2026-05-08 11:03 | 18.73530 | 106.09863 | 34946 ft | 449 kts | 359° |
| 2026-05-08 11:04 | 18.79772 | 106.09948 | 34948 ft | 448 kts | 359° |
| 2026-05-08 11:04 | 18.86006 | 106.10030 | 34951 ft | 448 kts | 359° |
| 2026-05-08 11:05 | 18.92235 | 106.10108 | 34950 ft | 447 kts | 359° |
| 2026-05-08 11:05 | 18.98458 | 106.10182 | 34949 ft | 447 kts | 359° |
| 2026-05-08 11:06 | 19.04678 | 106.10251 | 34950 ft | 447 kts | 359° |
| 2026-05-08 11:06 | 19.10902 | 106.10314 | 34943 ft | 447 kts | 359° |
| 2026-05-08 11:07 | 19.17133 | 106.10386 | 34935 ft | 448 kts | 359° |
| 2026-05-08 11:07 | 19.23370 | 106.10460 | 34934 ft | 448 kts | 359° |
| 2026-05-08 11:08 | 19.29609 | 106.10529 | 34934 ft | 449 kts | 359° |
| 2026-05-08 11:08 | 19.35850 | 106.10600 | 34935 ft | 449 kts | 359° |
| 2026-05-08 11:09 | 19.42095 | 106.10672 | 34937 ft | 449 kts | 358° |
| 2026-05-08 11:09 | 19.48343 | 106.10741 | 34938 ft | 449 kts | 358° |
| 2026-05-08 11:10 | 19.54590 | 106.10808 | 34939 ft | 449 kts | 358° |
| 2026-05-08 11:10 | 19.60838 | 106.10888 | 34939 ft | 449 kts | 359° |
| 2026-05-08 11:11 | 19.67088 | 106.10968 | 34933 ft | 449 kts | 359° |
| 2026-05-08 11:11 | 19.73338 | 106.11044 | 34941 ft | 449 kts | 358° |
| 2026-05-08 11:12 | 19.79586 | 106.11110 | 34936 ft | 449 kts | 358° |
| 2026-05-08 11:12 | 19.85842 | 106.11180 | 34935 ft | 449 kts | 358° |
| 2026-05-08 11:13 | 19.92099 | 106.11252 | 34936 ft | 450 kts | 358° |
| 2026-05-08 11:13 | 19.98312 | 106.11318 | 34935 ft | 450 kts | 358° |
| 2026-05-08 11:14 | 20.04569 | 106.11375 | 34937 ft | 450 kts | 358° |
| 2026-05-08 11:14 | 20.10824 | 106.11440 | 34945 ft | 450 kts | 358° |